sensor_id;sensor_type;location;lat;lon;timestamp;P1;durP1;ratioP1;P2;durP2;ratioP2
23280;SDS011;11809;56.390;-3.266;2023-03-12T00:02:13;1.75;;;1.00;;
23280;SDS011;11809;56.390;-3.266;2023-03-12T00:04:40;1.52;;;1.05;;
23280;SDS011;11809;56.390;-3.266;2023-03-12T00:07:07;1.10;;;0.90;;
23280;SDS011;11809;56.390;-3.266;2023-03-12T00:09:35;1.10;;;1.00;;
23280;SDS011;11809;56.390;-3.266;2023-03-12T00:12:03;1.00;;;0.90;;
23280;SDS011;11809;56.390;-3.266;2023-03-12T00:14:31;0.80;;;0.80;;
23280;SDS011;11809;56.390;-3.266;2023-03-12T00:16:58;2.05;;;1.00;;
23280;SDS011;11809;56.390;-3.266;2023-03-12T00:19:25;1.35;;;0.88;;
23280;SDS011;11809;56.390;-3.266;2023-03-12T00:21:52;0.98;;;0.90;;
23280;SDS011;11809;56.390;-3.266;2023-03-12T00:24:19;3.45;;;0.88;;
23280;SDS011;11809;56.390;-3.266;2023-03-12T00:26:46;1.77;;;1.10;;
23280;SDS011;11809;56.390;-3.266;2023-03-12T00:29:13;1.10;;;1.00;;
23280;SDS011;11809;56.390;-3.266;2023-03-12T00:31:40;1.33;;;1.10;;
23280;SDS011;11809;56.390;-3.266;2023-03-12T00:34:07;0.90;;;0.90;;
23280;SDS011;11809;56.390;-3.266;2023-03-12T00:36:37;1.20;;;1.10;;
23280;SDS011;11809;56.390;-3.266;2023-03-12T00:39:06;1.27;;;1.00;;
23280;SDS011;11809;56.390;-3.266;2023-03-12T00:41:33;0.80;;;0.80;;
23280;SDS011;11809;56.390;-3.266;2023-03-12T00:44:00;1.42;;;1.00;;
23280;SDS011;11809;56.390;-3.266;2023-03-12T00:46:27;1.88;;;1.30;;
23280;SDS011;11809;56.390;-3.266;2023-03-12T00:48:55;1.35;;;1.00;;
23280;SDS011;11809;56.390;-3.266;2023-03-12T00:51:21;2.15;;;1.17;;
23280;SDS011;11809;56.390;-3.266;2023-03-12T00:53:48;1.00;;;1.00;;
23280;SDS011;11809;56.390;-3.266;2023-03-12T00:56:15;1.42;;;1.20;;
23280;SDS011;11809;56.390;-3.266;2023-03-12T00:58:42;1.85;;;1.00;;
23280;SDS011;11809;56.390;-3.266;2023-03-12T01:01:09;0.90;;;0.90;;
23280;SDS011;11809;56.390;-3.266;2023-03-12T01:03:36;1.42;;;1.20;;
23280;SDS011;11809;56.390;-3.266;2023-03-12T01:06:04;1.17;;;1.08;;
23280;SDS011;11809;56.390;-3.266;2023-03-12T01:08:32;1.73;;;1.40;;
23280;SDS011;11809;56.390;-3.266;2023-03-12T01:10:59;1.15;;;1.05;;
23280;SDS011;11809;56.390;-3.266;2023-03-12T01:13:26;1.77;;;1.23;;
23280;SDS011;11809;56.390;-3.266;2023-03-12T01:15:53;1.30;;;1.20;;
23280;SDS011;11809;56.390;-3.266;2023-03-12T01:18:20;1.00;;;1.00;;
23280;SDS011;11809;56.390;-3.266;2023-03-12T01:20:47;1.17;;;1.08;;
23280;SDS011;11809;56.390;-3.266;2023-03-12T01:23:15;1.33;;;1.10;;
23280;SDS011;11809;56.390;-3.266;2023-03-12T01:25:42;1.45;;;1.30;;
23280;SDS011;11809;56.390;-3.266;2023-03-12T01:28:08;1.73;;;1.30;;
23280;SDS011;11809;56.390;-3.266;2023-03-12T01:30:35;1.98;;;1.20;;
23280;SDS011;11809;56.390;-3.266;2023-03-12T01:33:02;1.50;;;1.40;;
23280;SDS011;11809;56.390;-3.266;2023-03-12T01:35:29;1.60;;;1.50;;
23280;SDS011;11809;56.390;-3.266;2023-03-12T01:38:00;1.85;;;1.50;;
23280;SDS011;11809;56.390;-3.266;2023-03-12T01:40:27;1.40;;;1.30;;
23280;SDS011;11809;56.390;-3.266;2023-03-12T01:42:55;1.45;;;1.35;;
23280;SDS011;11809;56.390;-3.266;2023-03-12T01:48:25;1.77;;;1.63;;
23280;SDS011;11809;56.390;-3.266;2023-03-12T01:50:54;1.33;;;1.23;;
23280;SDS011;11809;56.390;-3.266;2023-03-12T01:53:21;1.52;;;1.40;;
23280;SDS011;11809;56.390;-3.266;2023-03-12T01:55:49;1.50;;;1.40;;
23280;SDS011;11809;56.390;-3.266;2023-03-12T01:58:16;1.70;;;1.55;;
23280;SDS011;11809;56.390;-3.266;2023-03-12T02:00:44;1.52;;;1.42;;
23280;SDS011;11809;56.390;-3.266;2023-03-12T02:03:11;1.50;;;1.30;;
23280;SDS011;11809;56.390;-3.266;2023-03-12T02:05:47;1.60;;;1.50;;
23280;SDS011;11809;56.390;-3.266;2023-03-12T02:08:16;1.50;;;1.40;;
23280;SDS011;11809;56.390;-3.266;2023-03-12T02:10:44;1.65;;;1.55;;
23280;SDS011;11809;56.390;-3.266;2023-03-12T02:13:12;1.50;;;1.40;;
23280;SDS011;11809;56.390;-3.266;2023-03-12T02:15:39;1.52;;;1.42;;
23280;SDS011;11809;56.390;-3.266;2023-03-12T02:18:07;4.45;;;1.70;;
23280;SDS011;11809;56.390;-3.266;2023-03-12T02:26:17;1.48;;;1.38;;
23280;SDS011;11809;56.390;-3.266;2023-03-12T02:28:47;1.67;;;1.58;;
23280;SDS011;11809;56.390;-3.266;2023-03-12T02:31:19;1.92;;;1.70;;
23280;SDS011;11809;56.390;-3.266;2023-03-12T02:33:49;1.60;;;1.50;;
23280;SDS011;11809;56.390;-3.266;2023-03-12T02:36:18;1.73;;;1.63;;
23280;SDS011;11809;56.390;-3.266;2023-03-12T02:38:46;1.92;;;1.50;;
23280;SDS011;11809;56.390;-3.266;2023-03-12T02:43:59;1.50;;;1.40;;
23280;SDS011;11809;56.390;-3.266;2023-03-12T02:46:34;2.10;;;1.60;;
23280;SDS011;11809;56.390;-3.266;2023-03-12T02:49:11;1.40;;;1.30;;
23280;SDS011;11809;56.390;-3.266;2023-03-12T02:51:40;1.55;;;1.45;;
23280;SDS011;11809;56.390;-3.266;2023-03-12T02:54:08;1.42;;;1.33;;
23280;SDS011;11809;56.390;-3.266;2023-03-12T02:56:36;1.60;;;1.50;;
23280;SDS011;11809;56.390;-3.266;2023-03-12T02:59:04;1.38;;;1.27;;
23280;SDS011;11809;56.390;-3.266;2023-03-12T03:01:32;1.45;;;1.35;;
23280;SDS011;11809;56.390;-3.266;2023-03-12T03:04:02;1.67;;;1.57;;
23280;SDS011;11809;56.390;-3.266;2023-03-12T03:06:30;1.45;;;1.35;;
23280;SDS011;11809;56.390;-3.266;2023-03-12T03:08:58;1.30;;;1.25;;
23280;SDS011;11809;56.390;-3.266;2023-03-12T03:11:25;1.70;;;1.50;;
23280;SDS011;11809;56.390;-3.266;2023-03-12T03:13:52;1.73;;;1.50;;
23280;SDS011;11809;56.390;-3.266;2023-03-12T03:16:20;1.70;;;1.60;;
23280;SDS011;11809;56.390;-3.266;2023-03-12T03:18:47;1.38;;;1.27;;
23280;SDS011;11809;56.390;-3.266;2023-03-12T03:21:15;1.55;;;1.45;;
23280;SDS011;11809;56.390;-3.266;2023-03-12T03:23:44;1.48;;;1.38;;
23280;SDS011;11809;56.390;-3.266;2023-03-12T03:26:13;1.75;;;1.50;;
23280;SDS011;11809;56.390;-3.266;2023-03-12T03:28:41;1.40;;;1.30;;
23280;SDS011;11809;56.390;-3.266;2023-03-12T03:31:06;1.40;;;1.30;;
23280;SDS011;11809;56.390;-3.266;2023-03-12T03:33:35;1.40;;;1.30;;
23280;SDS011;11809;56.390;-3.266;2023-03-12T03:36:03;1.50;;;1.40;;
23280;SDS011;11809;56.390;-3.266;2023-03-12T03:38:32;2.00;;;1.33;;
23280;SDS011;11809;56.390;-3.266;2023-03-12T03:41:00;1.40;;;1.30;;
23280;SDS011;11809;56.390;-3.266;2023-03-12T03:43:27;1.45;;;1.35;;
23280;SDS011;11809;56.390;-3.266;2023-03-12T03:45:58;1.30;;;1.20;;
23280;SDS011;11809;56.390;-3.266;2023-03-12T03:48:26;4.93;;;1.55;;
23280;SDS011;11809;56.390;-3.266;2023-03-12T03:50:53;1.50;;;1.40;;
23280;SDS011;11809;56.390;-3.266;2023-03-12T03:53:20;1.55;;;1.23;;
23280;SDS011;11809;56.390;-3.266;2023-03-12T03:55:47;1.60;;;1.50;;
23280;SDS011;11809;56.390;-3.266;2023-03-12T03:58:14;1.40;;;1.30;;
23280;SDS011;11809;56.390;-3.266;2023-03-12T04:00:43;1.45;;;1.35;;
23280;SDS011;11809;56.390;-3.266;2023-03-12T04:03:12;2.10;;;1.40;;
23280;SDS011;11809;56.390;-3.266;2023-03-12T04:05:39;1.33;;;1.23;;
23280;SDS011;11809;56.390;-3.266;2023-03-12T04:10:38;1.75;;;1.40;;
23280;SDS011;11809;56.390;-3.266;2023-03-12T04:13:05;2.70;;;1.30;;
23280;SDS011;11809;56.390;-3.266;2023-03-12T04:15:32;1.50;;;1.40;;
23280;SDS011;11809;56.390;-3.266;2023-03-12T04:17:59;1.10;;;1.10;;
23280;SDS011;11809;56.390;-3.266;2023-03-12T04:20:26;1.50;;;1.40;;
23280;SDS011;11809;56.390;-3.266;2023-03-12T04:22:53;1.48;;;1.38;;
23280;SDS011;11809;56.390;-3.266;2023-03-12T04:25:20;1.38;;;1.27;;
23280;SDS011;11809;56.390;-3.266;2023-03-12T04:27:47;1.38;;;1.27;;
23280;SDS011;11809;56.390;-3.266;2023-03-12T04:30:14;1.40;;;1.30;;
23280;SDS011;11809;56.390;-3.266;2023-03-12T04:32:41;1.38;;;1.27;;
23280;SDS011;11809;56.390;-3.266;2023-03-12T04:35:08;1.35;;;1.25;;
23280;SDS011;11809;56.390;-3.266;2023-03-12T04:37:34;1.50;;;1.40;;
23280;SDS011;11809;56.390;-3.266;2023-03-12T04:40:02;1.50;;;1.40;;
23280;SDS011;11809;56.390;-3.266;2023-03-12T04:42:33;1.73;;;1.60;;
23280;SDS011;11809;56.390;-3.266;2023-03-12T04:45:01;1.40;;;1.30;;
23280;SDS011;11809;56.390;-3.266;2023-03-12T04:47:32;1.48;;;1.38;;
23280;SDS011;11809;56.390;-3.266;2023-03-12T04:49:59;1.48;;;1.38;;
23280;SDS011;11809;56.390;-3.266;2023-03-12T04:52:26;1.60;;;1.50;;
23280;SDS011;11809;56.390;-3.266;2023-03-12T04:54:53;1.40;;;1.30;;
23280;SDS011;11809;56.390;-3.266;2023-03-12T04:57:21;1.70;;;1.60;;
23280;SDS011;11809;56.390;-3.266;2023-03-12T04:59:48;1.80;;;1.70;;
23280;SDS011;11809;56.390;-3.266;2023-03-12T05:02:15;1.50;;;1.40;;
23280;SDS011;11809;56.390;-3.266;2023-03-12T05:04:42;2.05;;;1.83;;
23280;SDS011;11809;56.390;-3.266;2023-03-12T05:07:08;1.80;;;1.70;;
23280;SDS011;11809;56.390;-3.266;2023-03-12T05:09:35;1.52;;;1.42;;
23280;SDS011;11809;56.390;-3.266;2023-03-12T05:12:02;1.77;;;1.67;;
23280;SDS011;11809;56.390;-3.266;2023-03-12T05:14:29;1.88;;;1.77;;
23280;SDS011;11809;56.390;-3.266;2023-03-12T05:16:56;1.52;;;1.42;;
23280;SDS011;11809;56.390;-3.266;2023-03-12T05:19:23;1.70;;;1.60;;
23280;SDS011;11809;56.390;-3.266;2023-03-12T05:21:50;1.60;;;1.50;;
23280;SDS011;11809;56.390;-3.266;2023-03-12T05:24:17;1.60;;;1.50;;
23280;SDS011;11809;56.390;-3.266;2023-03-12T05:26:44;2.17;;;2.08;;
23280;SDS011;11809;56.390;-3.266;2023-03-12T05:29:11;1.92;;;1.83;;
23280;SDS011;11809;56.390;-3.266;2023-03-12T05:31:38;1.80;;;1.70;;
23280;SDS011;11809;56.390;-3.266;2023-03-12T05:34:05;1.73;;;1.63;;
23280;SDS011;11809;56.390;-3.266;2023-03-12T05:36:32;3.45;;;1.85;;
23280;SDS011;11809;56.390;-3.266;2023-03-12T05:38:59;2.00;;;1.90;;
23280;SDS011;11809;56.390;-3.266;2023-03-12T05:41:27;2.00;;;1.90;;
23280;SDS011;11809;56.390;-3.266;2023-03-12T05:43:55;1.95;;;1.85;;
23280;SDS011;11809;56.390;-3.266;2023-03-12T05:46:23;1.80;;;1.70;;
23280;SDS011;11809;56.390;-3.266;2023-03-12T05:48:51;1.80;;;1.65;;
23280;SDS011;11809;56.390;-3.266;2023-03-12T05:51:19;2.40;;;1.90;;
23280;SDS011;11809;56.390;-3.266;2023-03-12T05:53:46;1.80;;;1.70;;
23280;SDS011;11809;56.390;-3.266;2023-03-12T05:56:14;5.32;;;1.90;;
23280;SDS011;11809;56.390;-3.266;2023-03-12T05:58:42;1.77;;;1.67;;
23280;SDS011;11809;56.390;-3.266;2023-03-12T06:01:11;2.00;;;1.90;;
23280;SDS011;11809;56.390;-3.266;2023-03-12T06:03:46;2.30;;;2.10;;
23280;SDS011;11809;56.390;-3.266;2023-03-12T06:06:13;2.00;;;1.90;;
23280;SDS011;11809;56.390;-3.266;2023-03-12T06:08:40;1.98;;;1.88;;
23280;SDS011;11809;56.390;-3.266;2023-03-12T06:11:08;4.40;;;1.98;;
23280;SDS011;11809;56.390;-3.266;2023-03-12T06:13:35;13.30;;;2.63;;
23280;SDS011;11809;56.390;-3.266;2023-03-12T06:16:03;15.18;;;2.28;;
23280;SDS011;11809;56.390;-3.266;2023-03-12T06:18:40;8.80;;;1.90;;
23280;SDS011;11809;56.390;-3.266;2023-03-12T06:23:34;5.15;;;2.08;;
23280;SDS011;11809;56.390;-3.266;2023-03-12T06:26:01;6.95;;;1.98;;
23280;SDS011;11809;56.390;-3.266;2023-03-12T06:28:28;7.57;;;1.80;;
23280;SDS011;11809;56.390;-3.266;2023-03-12T06:30:55;9.15;;;2.05;;
23280;SDS011;11809;56.390;-3.266;2023-03-12T06:33:22;4.38;;;1.95;;
23280;SDS011;11809;56.390;-3.266;2023-03-12T06:35:52;6.35;;;2.53;;
23280;SDS011;11809;56.390;-3.266;2023-03-12T06:38:23;15.35;;;3.90;;
23280;SDS011;11809;56.390;-3.266;2023-03-12T06:40:55;23.00;;;3.75;;
23280;SDS011;11809;56.390;-3.266;2023-03-12T06:43:23;10.90;;;3.08;;
23280;SDS011;11809;56.390;-3.266;2023-03-12T06:45:52;44.25;;;5.15;;
23280;SDS011;11809;56.390;-3.266;2023-03-12T06:48:20;27.98;;;3.40;;
23280;SDS011;11809;56.390;-3.266;2023-03-12T06:50:48;28.05;;;3.08;;
23280;SDS011;11809;56.390;-3.266;2023-03-12T06:53:15;31.98;;;4.10;;
23280;SDS011;11809;56.390;-3.266;2023-03-12T06:55:42;20.50;;;3.22;;
23280;SDS011;11809;56.390;-3.266;2023-03-12T06:58:10;22.30;;;3.17;;
23280;SDS011;11809;56.390;-3.266;2023-03-12T07:00:37;48.25;;;5.00;;
23280;SDS011;11809;56.390;-3.266;2023-03-12T07:03:04;30.23;;;3.97;;
23280;SDS011;11809;56.390;-3.266;2023-03-12T07:05:32;16.00;;;3.85;;
23280;SDS011;11809;56.390;-3.266;2023-03-12T07:07:58;8.45;;;4.35;;
23280;SDS011;11809;56.390;-3.266;2023-03-12T07:10:25;10.63;;;4.20;;
23280;SDS011;11809;56.390;-3.266;2023-03-12T07:12:55;20.70;;;3.88;;
23280;SDS011;11809;56.390;-3.266;2023-03-12T07:15:22;40.83;;;4.43;;
23280;SDS011;11809;56.390;-3.266;2023-03-12T07:17:49;13.23;;;3.15;;
23280;SDS011;11809;56.390;-3.266;2023-03-12T07:20:17;17.20;;;3.45;;
23280;SDS011;11809;56.390;-3.266;2023-03-12T07:22:44;21.73;;;3.25;;
23280;SDS011;11809;56.390;-3.266;2023-03-12T07:25:11;15.20;;;3.03;;
23280;SDS011;11809;56.390;-3.266;2023-03-12T07:27:38;9.30;;;2.63;;
23280;SDS011;11809;56.390;-3.266;2023-03-12T07:30:05;9.93;;;2.38;;
23280;SDS011;11809;56.390;-3.266;2023-03-12T07:32:32;20.98;;;3.83;;
23280;SDS011;11809;56.390;-3.266;2023-03-12T07:35:01;13.23;;;3.70;;
23280;SDS011;11809;56.390;-3.266;2023-03-12T07:37:29;42.88;;;5.45;;
23280;SDS011;11809;56.390;-3.266;2023-03-12T07:39:56;32.90;;;5.22;;
23280;SDS011;11809;56.390;-3.266;2023-03-12T07:42:23;18.23;;;3.80;;
23280;SDS011;11809;56.390;-3.266;2023-03-12T07:44:50;19.73;;;3.50;;
23280;SDS011;11809;56.390;-3.266;2023-03-12T07:47:18;55.17;;;5.25;;
23280;SDS011;11809;56.390;-3.266;2023-03-12T07:49:49;15.68;;;3.10;;
23280;SDS011;11809;56.390;-3.266;2023-03-12T07:52:16;15.07;;;3.28;;
23280;SDS011;11809;56.390;-3.266;2023-03-12T07:54:45;15.73;;;3.90;;
23280;SDS011;11809;56.390;-3.266;2023-03-12T07:57:13;31.30;;;6.28;;
23280;SDS011;11809;56.390;-3.266;2023-03-12T07:59:40;29.70;;;5.45;;
23280;SDS011;11809;56.390;-3.266;2023-03-12T08:02:08;11.60;;;4.75;;
23280;SDS011;11809;56.390;-3.266;2023-03-12T08:04:36;10.30;;;5.30;;
23280;SDS011;11809;56.390;-3.266;2023-03-12T08:07:03;18.13;;;5.57;;
23280;SDS011;11809;56.390;-3.266;2023-03-12T08:09:34;12.98;;;5.35;;
23280;SDS011;11809;56.390;-3.266;2023-03-12T08:12:01;9.70;;;4.53;;
23280;SDS011;11809;56.390;-3.266;2023-03-12T08:14:28;10.80;;;5.00;;
23280;SDS011;11809;56.390;-3.266;2023-03-12T08:16:57;13.18;;;5.13;;
23280;SDS011;11809;56.390;-3.266;2023-03-12T08:19:25;10.27;;;5.05;;
23280;SDS011;11809;56.390;-3.266;2023-03-12T08:21:53;20.98;;;5.00;;
23280;SDS011;11809;56.390;-3.266;2023-03-12T08:24:20;12.82;;;4.78;;
23280;SDS011;11809;56.390;-3.266;2023-03-12T08:26:47;6.65;;;4.50;;
23280;SDS011;11809;56.390;-3.266;2023-03-12T08:29:15;8.73;;;3.67;;
23280;SDS011;11809;56.390;-3.266;2023-03-12T08:31:43;5.10;;;3.60;;
23280;SDS011;11809;56.390;-3.266;2023-03-12T08:34:28;4.30;;;3.20;;
23280;SDS011;11809;56.390;-3.266;2023-03-12T08:36:55;4.85;;;3.50;;
23280;SDS011;11809;56.390;-3.266;2023-03-12T08:39:22;5.55;;;3.00;;
23280;SDS011;11809;56.390;-3.266;2023-03-12T08:41:49;4.53;;;3.25;;
23280;SDS011;11809;56.390;-3.266;2023-03-12T08:44:23;3.60;;;2.63;;
23280;SDS011;11809;56.390;-3.266;2023-03-12T08:46:51;5.87;;;2.70;;
23280;SDS011;11809;56.390;-3.266;2023-03-12T08:49:19;2.70;;;2.50;;
23280;SDS011;11809;56.390;-3.266;2023-03-12T08:51:46;3.75;;;2.50;;
23280;SDS011;11809;56.390;-3.266;2023-03-12T08:54:14;3.97;;;2.05;;
23280;SDS011;11809;56.390;-3.266;2023-03-12T08:56:41;4.28;;;2.42;;
23280;SDS011;11809;56.390;-3.266;2023-03-12T08:59:09;4.07;;;2.25;;
23280;SDS011;11809;56.390;-3.266;2023-03-12T09:01:37;3.90;;;2.15;;
23280;SDS011;11809;56.390;-3.266;2023-03-12T09:04:09;6.25;;;2.13;;
23280;SDS011;11809;56.390;-3.266;2023-03-12T09:06:36;19.05;;;2.25;;
23280;SDS011;11809;56.390;-3.266;2023-03-12T09:09:04;8.85;;;1.98;;
23280;SDS011;11809;56.390;-3.266;2023-03-12T09:11:31;12.10;;;2.55;;
23280;SDS011;11809;56.390;-3.266;2023-03-12T09:13:59;8.85;;;2.10;;
23280;SDS011;11809;56.390;-3.266;2023-03-12T09:16:47;3.75;;;2.00;;
23280;SDS011;11809;56.390;-3.266;2023-03-12T09:19:15;2.30;;;1.70;;
23280;SDS011;11809;56.390;-3.266;2023-03-12T09:21:42;3.90;;;1.83;;
23280;SDS011;11809;56.390;-3.266;2023-03-12T09:24:10;4.38;;;1.95;;
23280;SDS011;11809;56.390;-3.266;2023-03-12T09:26:37;9.27;;;1.75;;
23280;SDS011;11809;56.390;-3.266;2023-03-12T09:29:04;2.05;;;1.60;;
23280;SDS011;11809;56.390;-3.266;2023-03-12T09:31:31;6.88;;;1.58;;
23280;SDS011;11809;56.390;-3.266;2023-03-12T09:34:00;3.70;;;1.70;;
23280;SDS011;11809;56.390;-3.266;2023-03-12T09:36:27;3.40;;;1.58;;
23280;SDS011;11809;56.390;-3.266;2023-03-12T09:38:54;6.97;;;1.55;;
23280;SDS011;11809;56.390;-3.266;2023-03-12T09:41:26;2.70;;;1.25;;
23280;SDS011;11809;56.390;-3.266;2023-03-12T09:43:56;6.72;;;1.17;;
23280;SDS011;11809;56.390;-3.266;2023-03-12T09:46:36;5.38;;;1.33;;
23280;SDS011;11809;56.390;-3.266;2023-03-12T09:49:36;4.95;;;1.17;;
23280;SDS011;11809;56.390;-3.266;2023-03-12T09:52:50;14.40;;;1.83;;
23280;SDS011;11809;56.390;-3.266;2023-03-12T09:55:16;4.90;;;1.45;;
23280;SDS011;11809;56.390;-3.266;2023-03-12T09:57:46;4.70;;;1.40;;
23280;SDS011;11809;56.390;-3.266;2023-03-12T10:00:17;4.55;;;1.60;;
23280;SDS011;11809;56.390;-3.266;2023-03-12T10:05:35;20.80;;;2.33;;
23280;SDS011;11809;56.390;-3.266;2023-03-12T10:08:11;10.63;;;1.63;;
23280;SDS011;11809;56.390;-3.266;2023-03-12T10:11:02;14.32;;;1.98;;
23280;SDS011;11809;56.390;-3.266;2023-03-12T10:28:02;3.13;;;1.30;;
23280;SDS011;11809;56.390;-3.266;2023-03-12T10:30:47;4.85;;;1.23;;
23280;SDS011;11809;56.390;-3.266;2023-03-12T10:33:20;5.18;;;1.17;;
23280;SDS011;11809;56.390;-3.266;2023-03-12T10:35:51;3.47;;;0.95;;
23280;SDS011;11809;56.390;-3.266;2023-03-12T10:38:23;3.70;;;0.88;;
23280;SDS011;11809;56.390;-3.266;2023-03-12T10:40:55;2.88;;;1.08;;
23280;SDS011;11809;56.390;-3.266;2023-03-12T10:43:22;3.70;;;1.23;;
23280;SDS011;11809;56.390;-3.266;2023-03-12T10:46:15;2.92;;;1.23;;
23280;SDS011;11809;56.390;-3.266;2023-03-12T10:52:18;8.15;;;1.90;;
23280;SDS011;11809;56.390;-3.266;2023-03-12T10:54:48;9.70;;;2.90;;
23280;SDS011;11809;56.390;-3.266;2023-03-12T10:57:17;9.88;;;2.55;;
23280;SDS011;11809;56.390;-3.266;2023-03-12T10:59:46;4.75;;;2.60;;
23280;SDS011;11809;56.390;-3.266;2023-03-12T11:05:19;4.80;;;2.45;;
23280;SDS011;11809;56.390;-3.266;2023-03-12T11:07:49;5.90;;;3.50;;
23280;SDS011;11809;56.390;-3.266;2023-03-12T11:10:19;10.48;;;3.35;;
23280;SDS011;11809;56.390;-3.266;2023-03-12T11:12:57;7.95;;;3.78;;
23280;SDS011;11809;56.390;-3.266;2023-03-12T11:18:24;6.72;;;3.30;;
23280;SDS011;11809;56.390;-3.266;2023-03-12T11:20:53;8.27;;;3.75;;
23280;SDS011;11809;56.390;-3.266;2023-03-12T11:29:47;8.90;;;3.35;;
23280;SDS011;11809;56.390;-3.266;2023-03-12T11:34:54;8.43;;;3.50;;
23280;SDS011;11809;56.390;-3.266;2023-03-12T11:51:00;23.05;;;3.75;;
23280;SDS011;11809;56.390;-3.266;2023-03-12T11:59:46;30.25;;;5.22;;
23280;SDS011;11809;56.390;-3.266;2023-03-12T12:10:29;23.10;;;5.15;;
23280;SDS011;11809;56.390;-3.266;2023-03-12T12:13:05;15.30;;;4.50;;
23280;SDS011;11809;56.390;-3.266;2023-03-12T12:18:27;20.27;;;4.25;;
23280;SDS011;11809;56.390;-3.266;2023-03-12T12:26:43;18.30;;;3.70;;
23280;SDS011;11809;56.390;-3.266;2023-03-12T12:31:57;11.02;;;2.95;;
23280;SDS011;11809;56.390;-3.266;2023-03-12T12:39:47;8.48;;;2.80;;
23280;SDS011;11809;56.390;-3.266;2023-03-12T12:42:22;9.55;;;2.75;;
23280;SDS011;11809;56.390;-3.266;2023-03-12T12:44:53;10.98;;;2.42;;
23280;SDS011;11809;56.390;-3.266;2023-03-12T12:47:30;5.93;;;2.50;;
23280;SDS011;11809;56.390;-3.266;2023-03-12T12:50:06;8.82;;;2.63;;
23280;SDS011;11809;56.390;-3.266;2023-03-12T12:52:44;7.07;;;2.10;;
23280;SDS011;11809;56.390;-3.266;2023-03-12T12:55:21;5.82;;;2.08;;
23280;SDS011;11809;56.390;-3.266;2023-03-12T13:01:10;7.22;;;1.80;;
23280;SDS011;11809;56.390;-3.266;2023-03-12T13:03:40;7.18;;;2.05;;
23280;SDS011;11809;56.390;-3.266;2023-03-12T13:06:09;9.45;;;2.53;;
23280;SDS011;11809;56.390;-3.266;2023-03-12T13:13:50;8.57;;;2.60;;
23280;SDS011;11809;56.390;-3.266;2023-03-12T13:16:36;11.25;;;2.78;;
23280;SDS011;11809;56.390;-3.266;2023-03-12T13:24:28;31.15;;;3.95;;
23280;SDS011;11809;56.390;-3.266;2023-03-12T13:31:56;9.23;;;2.78;;
23280;SDS011;11809;56.390;-3.266;2023-03-12T13:36:57;13.52;;;2.90;;
23280;SDS011;11809;56.390;-3.266;2023-03-12T13:41:54;14.15;;;2.90;;
23280;SDS011;11809;56.390;-3.266;2023-03-12T13:49:59;10.05;;;2.63;;
23280;SDS011;11809;56.390;-3.266;2023-03-12T13:52:30;11.60;;;2.78;;
23280;SDS011;11809;56.390;-3.266;2023-03-12T13:55:00;8.15;;;2.00;;
23280;SDS011;11809;56.390;-3.266;2023-03-12T13:59:55;6.97;;;1.80;;
23280;SDS011;11809;56.390;-3.266;2023-03-12T14:02:26;6.88;;;2.10;;
23280;SDS011;11809;56.390;-3.266;2023-03-12T14:05:05;10.60;;;2.22;;
23280;SDS011;11809;56.390;-3.266;2023-03-12T14:07:42;4.88;;;1.60;;
23280;SDS011;11809;56.390;-3.266;2023-03-12T14:18:19;9.32;;;1.92;;
23280;SDS011;11809;56.390;-3.266;2023-03-12T14:20:52;18.02;;;2.55;;
23280;SDS011;11809;56.390;-3.266;2023-03-12T14:23:21;56.50;;;20.58;;
23280;SDS011;11809;56.390;-3.266;2023-03-12T14:25:55;51.20;;;18.42;;
23280;SDS011;11809;56.390;-3.266;2023-03-12T14:28:29;55.28;;;17.77;;
23280;SDS011;11809;56.390;-3.266;2023-03-12T14:31:10;34.65;;;12.63;;
23280;SDS011;11809;56.390;-3.266;2023-03-12T14:34:26;32.38;;;10.45;;
23280;SDS011;11809;56.390;-3.266;2023-03-12T14:36:35;32.47;;;9.38;;
23280;SDS011;11809;56.390;-3.266;2023-03-12T14:42:18;25.35;;;7.50;;
23280;SDS011;11809;56.390;-3.266;2023-03-12T14:44:58;38.33;;;12.63;;
23280;SDS011;11809;56.390;-3.266;2023-03-12T14:47:28;24.02;;;10.63;;
23280;SDS011;11809;56.390;-3.266;2023-03-12T14:49:55;19.90;;;8.82;;
23280;SDS011;11809;56.390;-3.266;2023-03-12T14:52:25;24.17;;;7.75;;
23280;SDS011;11809;56.390;-3.266;2023-03-12T14:54:56;16.73;;;6.15;;
23280;SDS011;11809;56.390;-3.266;2023-03-12T14:57:33;11.10;;;5.03;;
23280;SDS011;11809;56.390;-3.266;2023-03-12T15:00:00;15.65;;;5.55;;
23280;SDS011;11809;56.390;-3.266;2023-03-12T15:02:29;13.07;;;4.97;;
23280;SDS011;11809;56.390;-3.266;2023-03-12T15:04:58;9.95;;;5.25;;
23280;SDS011;11809;56.390;-3.266;2023-03-12T15:07:36;8.48;;;4.25;;
23280;SDS011;11809;56.390;-3.266;2023-03-12T15:10:05;8.60;;;4.18;;
23280;SDS011;11809;56.390;-3.266;2023-03-12T15:12:42;10.52;;;3.58;;
23280;SDS011;11809;56.390;-3.266;2023-03-12T15:17:58;7.50;;;3.30;;
23280;SDS011;11809;56.390;-3.266;2023-03-12T15:20:25;10.35;;;2.80;;
23280;SDS011;11809;56.390;-3.266;2023-03-12T15:22:53;8.38;;;2.60;;
23280;SDS011;11809;56.390;-3.266;2023-03-12T15:25:28;9.95;;;2.88;;
23280;SDS011;11809;56.390;-3.266;2023-03-12T15:30:30;5.32;;;2.35;;
23280;SDS011;11809;56.390;-3.266;2023-03-12T15:33:04;5.20;;;1.67;;
23280;SDS011;11809;56.390;-3.266;2023-03-12T15:35:32;5.57;;;2.15;;
23280;SDS011;11809;56.390;-3.266;2023-03-12T15:37:59;2.97;;;1.63;;
23280;SDS011;11809;56.390;-3.266;2023-03-12T15:40:28;4.90;;;1.95;;
23280;SDS011;11809;56.390;-3.266;2023-03-12T15:42:56;9.55;;;1.63;;
23280;SDS011;11809;56.390;-3.266;2023-03-12T15:47:55;5.28;;;1.55;;
23280;SDS011;11809;56.390;-3.266;2023-03-12T15:50:29;3.10;;;1.40;;
23280;SDS011;11809;56.390;-3.266;2023-03-12T15:53:21;3.70;;;1.10;;
23280;SDS011;11809;56.390;-3.266;2023-03-12T15:56:04;3.60;;;1.30;;
23280;SDS011;11809;56.390;-3.266;2023-03-12T15:58:46;3.90;;;1.13;;
23280;SDS011;11809;56.390;-3.266;2023-03-12T16:01:24;9.98;;;1.00;;
23280;SDS011;11809;56.390;-3.266;2023-03-12T16:03:53;1.88;;;1.20;;
23280;SDS011;11809;56.390;-3.266;2023-03-12T16:06:21;3.13;;;1.08;;
23280;SDS011;11809;56.390;-3.266;2023-03-12T16:08:58;6.15;;;1.30;;
23280;SDS011;11809;56.390;-3.266;2023-03-12T16:11:30;10.48;;;1.05;;
23280;SDS011;11809;56.390;-3.266;2023-03-12T16:16:45;30.48;;;2.10;;
23280;SDS011;11809;56.390;-3.266;2023-03-12T16:19:14;12.00;;;1.30;;
23280;SDS011;11809;56.390;-3.266;2023-03-12T16:21:43;15.25;;;1.65;;
23280;SDS011;11809;56.390;-3.266;2023-03-12T16:24:10;22.80;;;1.70;;
23280;SDS011;11809;56.390;-3.266;2023-03-12T16:26:40;3.70;;;1.20;;
23280;SDS011;11809;56.390;-3.266;2023-03-12T16:29:12;25.42;;;2.38;;
23280;SDS011;11809;56.390;-3.266;2023-03-12T16:31:41;5.85;;;1.20;;
23280;SDS011;11809;56.390;-3.266;2023-03-12T16:34:09;20.67;;;2.30;;
23280;SDS011;11809;56.390;-3.266;2023-03-12T16:36:37;14.20;;;1.48;;
23280;SDS011;11809;56.390;-3.266;2023-03-12T16:39:04;12.98;;;1.17;;
23280;SDS011;11809;56.390;-3.266;2023-03-12T16:41:31;14.30;;;1.40;;
23280;SDS011;11809;56.390;-3.266;2023-03-12T16:43:59;4.93;;;1.00;;
23280;SDS011;11809;56.390;-3.266;2023-03-12T16:46:28;4.75;;;0.90;;
23280;SDS011;11809;56.390;-3.266;2023-03-12T16:48:57;5.78;;;1.08;;
23280;SDS011;11809;56.390;-3.266;2023-03-12T16:51:25;6.30;;;0.95;;
23280;SDS011;11809;56.390;-3.266;2023-03-12T16:53:54;6.20;;;1.13;;
23280;SDS011;11809;56.390;-3.266;2023-03-12T16:56:36;9.07;;;1.30;;
23280;SDS011;11809;56.390;-3.266;2023-03-12T16:59:10;8.87;;;1.33;;
23280;SDS011;11809;56.390;-3.266;2023-03-12T17:01:42;5.55;;;0.75;;
23280;SDS011;11809;56.390;-3.266;2023-03-12T17:04:09;20.63;;;1.70;;
23280;SDS011;11809;56.390;-3.266;2023-03-12T17:06:37;14.40;;;1.27;;
23280;SDS011;11809;56.390;-3.266;2023-03-12T17:09:05;16.33;;;1.95;;
23280;SDS011;11809;56.390;-3.266;2023-03-12T17:11:35;13.30;;;1.20;;
23280;SDS011;11809;56.390;-3.266;2023-03-12T17:14:13;13.70;;;1.70;;
23280;SDS011;11809;56.390;-3.266;2023-03-12T17:16:43;23.30;;;1.87;;